Post Mills, Vermont
Current Conditions -  °F | °C
As of 7:53 PM on Friday 19 Dec 2014 (Local Time) from KLEB Reporting Station
Overcast Overcast  
Wind Chill: 14°   Ceiling: 1600
Heat Index: 25°   Visibility: 10mi
Dew Point: 17°   Wind: 12mph
Humidity: 72%   Direction: 350°N
Pressure: 30.12"   Gusts: 17mph
Location:  43.89°N, 72.26°W
Report Text: KLEB 200053Z 35010G15KT 10SM OVC016 M04/M08 A3012 RMK AO2 SLP210 T10391083
Loading
Personal Weather Stations






























Interactive Weather Map New forecast layout! Learn more

10-Day Weather Forecast

Advertisements
Track Severe Weather on mobile